Time;durP1;ratioP1;P1;durP2;ratioP2;P2;SDS_P1;SDS_P2;PMS_P1;PMS_P2;Temp;Humidity;BMP_temperature;BMP_pressure;BME280_temperature;BME280_humidity;BME280_pressure;Samples;Min_cycle;Max_cycle;Signal;HPM_P1;HPM_P2
2022/10/16 00:01:50;;;;;;;5.95;3.70;;;;;;;11.51;100.00;100739.03;10501366;28;20048;-77
2022/10/16 00:06:52;;;;;;;7.70;3.92;;;;;;;11.50;100.00;100743.38;10503532;28;20060;-79
2022/10/16 00:11:55;;;;;;;5.97;3.45;;;;;;;11.42;100.00;100732.47;10502918;28;20080;-78
2022/10/16 00:16:56;;;;;;;7.25;3.65;;;;;;;11.40;100.00;100732.53;10503305;28;20053;-79
2022/10/16 00:21:58;;;;;;;8.18;3.17;;;;;;;11.48;100.00;100744.38;10503105;28;20045;-77
2022/10/16 00:27:01;;;;;;;4.43;3.22;;;;;;;11.45;100.00;100740.16;10502801;28;20110;-62
2022/10/16 00:32:03;;;;;;;6.13;3.13;;;;;;;11.36;100.00;100735.38;10499304;28;20557;-63
2022/10/16 00:37:05;;;;;;;6.55;3.20;;;;;;;11.30;100.00;100731.28;10501505;28;20049;-64
2022/10/16 00:42:16;;;;;;;4.45;3.30;;;;;;;11.21;100.00;100743.00;10501686;28;20048;-64
2022/10/16 00:47:26;;;;;;;4.97;3.20;;;;;;;11.31;100.00;100752.13;10500809;28;20125;-64
2022/10/16 00:52:29;;;;;;;6.03;3.53;;;;;;;11.26;100.00;100746.25;10500189;28;20554;-64
2022/10/16 00:57:32;;;;;;;3.78;3.45;;;;;;;11.14;100.00;100754.66;10500602;28;20515;-63
2022/10/16 01:02:33;;;;;;;6.85;3.20;;;;;;;11.13;100.00;100742.53;10498731;28;20052;-63
2022/10/16 01:07:50;;;;;;;4.53;3.20;;;;;;;11.07;100.00;100741.06;10499851;28;20079;-65
2022/10/16 01:13:01;;;;;;;4.70;3.58;;;;;;;11.05;100.00;100733.28;10499814;28;20048;-62
2022/10/16 01:18:12;;;;;;;4.13;3.35;;;;;;;10.99;100.00;100735.34;10500276;28;20492;-62
2022/10/16 01:23:35;;;;;;;4.97;3.17;;;;;;;10.93;100.00;100736.47;10499737;28;20069;-63
2022/10/16 01:28:49;;;;;;;7.18;3.85;;;;;;;10.89;100.00;100753.19;10499116;28;20403;-62
2022/10/16 01:34:01;;;;;;;5.80;3.47;;;;;;;10.85;100.00;100749.88;10496892;28;20440;-65
2022/10/16 01:39:04;;;;;;;5.10;3.33;;;;;;;11.01;100.00;100750.00;10498841;28;20083;-63
2022/10/16 01:44:12;;;;;;;4.97;3.05;;;;;;;11.04;100.00;100749.00;10498628;28;20564;-62
2022/10/16 01:49:16;;;;;;;3.17;2.65;;;;;;;11.13;100.00;100739.91;10498473;28;20495;-63
2022/10/16 01:54:21;;;;;;;4.85;2.90;;;;;;;11.13;100.00;100737.31;10498426;28;20138;-64
2022/10/16 01:59:30;;;;;;;5.95;3.15;;;;;;;11.19;100.00;100750.09;10498145;28;20484;-63
2022/10/16 02:04:38;;;;;;;3.17;2.40;;;;;;;11.19;100.00;100750.09;10495396;28;20063;-64
2022/10/16 02:09:40;;;;;;;2.70;2.50;;;;;;;11.28;100.00;100747.03;10497405;28;20385;-66
2022/10/16 02:14:43;;;;;;;4.57;2.65;;;;;;;11.30;100.00;100745.19;10497835;28;20054;-64
2022/10/16 02:19:48;;;;;;;3.35;2.60;;;;;;;11.26;100.00;100745.41;10497529;28;20064;-64
2022/10/16 02:24:57;;;;;;;4.00;2.95;;;;;;;11.15;100.00;100754.59;10497358;28;20044;-63
2022/10/16 02:30:10;;;;;;;4.07;2.70;;;;;;;11.05;100.00;100754.16;10496939;28;20542;-64
2022/10/16 02:35:13;;;;;;;5.40;2.70;;;;;;;11.01;100.00;100741.31;10494693;28;20495;-63
2022/10/16 02:40:16;;;;;;;5.43;2.60;;;;;;;11.05;100.00;100754.16;10496734;28;20129;-63
2022/10/16 02:45:20;;;;;;;5.32;2.80;;;;;;;11.02;100.00;100756.91;10496679;28;20098;-63
2022/10/16 02:50:22;;;;;;;3.13;2.80;;;;;;;10.98;100.00;100746.72;10496308;28;20048;-63
2022/10/16 02:55:23;;;;;;;;;;;;;;;10.94;100.00;100738.16;10497105;28;20052;-63
2022/10/16 03:00:26;;;;;;;5.22;2.70;;;;;;;10.82;100.00;100742.19;10496910;28;19959;-63
2022/10/16 03:05:29;;;;;;;5.65;2.88;;;;;;;10.79;100.00;100758.84;10495811;28;20049;-63
2022/10/16 03:10:31;;;;;;;6.07;2.50;;;;;;;10.82;100.00;100763.88;10496359;28;20080;-63
2022/10/16 03:15:34;;;;;;;3.50;2.67;;;;;;;10.90;100.00;100750.50;10500299;28;20100;-77
2022/10/16 03:20:35;;;;;;;3.13;2.13;;;;;;;10.90;100.00;100770.53;10505616;28;20553;-76
2022/10/16 03:25:37;;;;;;;3.63;2.55;;;;;;;11.01;100.00;100763.06;10505365;28;20056;-78
2022/10/16 03:30:40;;;;;;;4.18;2.38;;;;;;;10.91;100.00;100782.66;10503340;28;20165;-78
2022/10/16 03:35:42;;;;;;;7.72;2.92;;;;;;;10.87;100.00;100786.34;10505287;28;20150;-78
2022/10/16 03:40:43;;;;;;;3.63;2.95;;;;;;;10.83;100.00;100780.41;10505078;28;20066;-80
2022/10/16 03:45:47;;;;;;;5.45;2.70;;;;;;;10.81;100.00;100788.31;10505226;28;20074;-77
2022/10/16 03:50:50;;;;;;;4.43;2.70;;;;;;;10.81;100.00;100797.88;10504068;28;20123;-63
2022/10/16 03:55:52;;;;;;;4.85;3.10;;;;;;;10.83;100.00;100803.91;10503288;28;20051;-64
2022/10/16 04:00:55;;;;;;;3.03;2.67;;;;;;;10.88;100.00;100801.94;10500826;28;20052;-62
2022/10/16 04:05:56;;;;;;;3.10;2.70;;;;;;;10.94;100.00;100798.19;10502479;28;20125;-62
2022/10/16 04:10:58;;;;;;;3.20;2.88;;;;;;;10.93;100.00;100797.38;10502385;28;20109;-64
2022/10/16 04:16:02;;;;;;;2.60;2.40;;;;;;;10.98;100.00;100806.75;10502650;28;20052;-66
2022/10/16 04:21:04;;;;;;;3.78;2.50;;;;;;;11.06;100.00;100815.09;10502937;28;20089;-65
2022/10/16 04:26:06;;;;;;;3.10;2.70;;;;;;;11.11;100.00;100810.50;10501522;28;20052;-66
2022/10/16 04:31:09;;;;;;;3.92;2.65;;;;;;;11.11;100.00;100809.63;10499509;28;20102;-64
2022/10/16 04:36:11;;;;;;;4.68;2.58;;;;;;;11.16;100.00;100805.06;10501391;28;20052;-64
2022/10/16 04:41:13;;;;;;;6.18;3.28;;;;;;;11.26;100.00;100803.72;10501413;28;20048;-65
2022/10/16 04:46:16;;;;;;;4.18;2.70;;;;;;;11.21;100.00;100826.59;10500940;28;20412;-63
2022/10/16 04:51:18;;;;;;;4.50;2.50;;;;;;;11.19;100.00;100831.06;10501285;28;20044;-62
2022/10/16 04:56:20;;;;;;;3.03;2.70;;;;;;;11.11;100.00;100834.00;10501281;28;20067;-62
2022/10/16 05:01:23;;;;;;;;;;;;;;;11.23;100.00;100842.22;10498867;28;20062;-64
2022/10/16 05:06:26;;;;;;;6.68;2.58;;;;;;;11.15;100.00;100842.56;10499851;28;20449;-62
2022/10/16 05:11:28;;;;;;;4.95;2.50;;;;;;;11.03;100.00;100868.31;10499810;28;20110;-61
2022/10/16 05:16:31;;;;;;;4.43;3.08;;;;;;;11.07;100.00;100869.88;10499782;28;20121;-65
2022/10/16 05:21:32;;;;;;;4.40;2.85;;;;;;;11.11;100.00;100869.72;10499702;28;20091;-60
2022/10/16 05:26:34;;;;;;;4.10;2.95;;;;;;;11.17;100.00;100872.06;10499593;28;20106;-64
2022/10/16 05:31:37;;;;;;;7.65;3.50;;;;;;;11.07;100.00;100872.47;10497543;28;20472;-63
2022/10/16 05:36:39;;;;;;;4.18;3.60;;;;;;;10.99;100.00;100877.19;10499638;28;20150;-63
2022/10/16 05:41:40;;;;;;;10.02;4.22;;;;;;;10.98;100.00;100880.69;10499042;28;20489;-63
2022/10/16 05:46:47;;;;;;;6.53;3.90;;;;;;;11.00;100.00;100893.69;10498766;28;20061;-64
2022/10/16 05:51:49;;;;;;;6.70;3.58;;;;;;;10.98;100.00;100909.44;10499438;28;20048;-82
2022/10/16 05:56:50;;;;;;;4.97;3.53;;;;;;;10.99;100.00;100921.59;10499354;28;20456;-74
2022/10/16 06:01:53;;;;;;;5.30;3.15;;;;;;;11.03;100.00;100925.75;10496896;28;20048;-78
2022/10/16 06:07:00;;;;;;;6.38;3.70;;;;;;;11.00;100.00;100923.28;10498638;28;20469;-81
2022/10/16 06:12:03;;;;;;;6.75;3.47;;;;;;;11.04;100.00;100937.03;10498196;28;20083;-79
2022/10/16 06:17:06;;;;;;;6.13;3.47;;;;;;;11.00;100.00;100938.09;10498513;28;20053;-76
2022/10/16 06:22:08;;;;;;;9.20;4.25;;;;;;;10.95;100.00;100957.41;10498753;28;20082;-80
2022/10/16 06:27:09;;;;;;;;;;;;;;;10.97;100.00;100959.97;10499345;28;20048;-82
2022/10/16 06:32:14;;;;;;;6.72;3.70;;;;;;;10.95;100.00;100969.63;10487193;28;19950;-81
2022/10/16 06:37:16;;;;;;;5.35;3.45;;;;;;;11.02;100.00;100981.50;10456548;28;20064;-72
2022/10/16 06:42:19;;;;;;;6.00;3.45;;;;;;;10.92;100.00;100988.03;10456287;28;20053;-80
2022/10/16 06:47:22;;;;;;;7.72;3.42;;;;;;;11.01;100.00;100998.09;10456992;28;20058;-81
2022/10/16 06:52:24;;;;;;;4.32;3.28;;;;;;;11.07;100.00;101008.28;10455741;28;20689;-82
2022/10/16 06:57:25;;;;;;;3.03;2.83;;;;;;;11.16;100.00;101014.03;10456366;28;20118;-80
2022/10/16 07:02:30;;;;;;;7.05;3.30;;;;;;;11.23;100.00;101023.31;10453966;28;20057;-75
2022/10/16 07:07:31;;;;;;;8.27;3.28;;;;;;;11.39;100.00;101028.72;10455165;28;20542;-78
2022/10/16 07:12:36;;;;;;;5.47;3.05;;;;;;;11.50;100.00;101036.09;10454957;28;20561;-82
2022/10/16 07:17:39;;;;;;;3.78;2.80;;;;;;;11.78;100.00;101040.13;10455309;28;20322;-79
2022/10/16 07:22:40;;;;;;;3.58;2.50;;;;;;;12.71;100.00;101055.13;10455102;28;20075;-81
2022/10/16 07:27:42;;;;;;;2.75;2.40;;;;;;;13.80;100.00;101055.00;10455004;28;20056;-79
2022/10/16 07:32:45;;;;;;;4.28;2.10;;;;;;;14.02;100.00;101061.72;10452539;28;20053;-76
2022/10/16 07:37:47;;;;;;;6.45;2.50;;;;;;;15.15;100.00;101075.66;10455473;28;20045;-82
2022/10/16 07:42:49;;;;;;;5.40;2.40;;;;;;;15.53;100.00;101078.75;10454543;28;20057;-74
2022/10/16 07:47:52;;;;;;;4.18;2.42;;;;;;;15.03;100.00;101107.91;10454626;28;20049;-78
2022/10/16 07:52:53;;;;;;;3.13;2.10;;;;;;;15.79;100.00;101111.38;10454813;28;20151;-71
2022/10/16 07:57:56;;;;;;;2.25;1.65;;;;;;;15.04;100.00;101125.34;10454569;28;20079;-77
2022/10/16 08:03:00;;;;;;;3.15;2.17;;;;;;;15.02;100.00;101120.19;10455257;28;20053;-71
2022/10/16 08:08:02;;;;;;;5.75;2.47;;;;;;;16.18;100.00;101126.66;10461009;28;20061;-75
2022/10/16 08:13:04;;;;;;;2.80;1.90;;;;;;;15.83;99.09;101130.44;10461579;28;20528;-82
2022/10/16 08:18:07;;;;;;;;;;;;;;;16.30;96.96;101144.31;10462462;28;20044;-72
2022/10/16 08:23:13;;;;;;;3.90;2.20;;;;;;;16.22;99.14;101155.31;10488528;28;19921;-73
2022/10/16 08:28:16;;;;;;;4.15;2.40;;;;;;;16.20;100.00;101151.94;10486863;28;20055;-69
2022/10/16 08:33:19;;;;;;;3.90;1.90;;;;;;;16.26;98.19;101163.88;10458278;28;20469;-78
2022/10/16 08:38:22;;;;;;;5.68;2.00;;;;;;;16.24;99.45;101167.53;10460992;28;20048;-75
2022/10/16 08:43:49;;;;;;;5.72;1.90;;;;;;;16.82;91.93;101175.34;10460768;28;20459;-74
2022/10/16 08:48:59;;;;;;;2.90;1.77;;;;;;;17.30;96.48;101182.00;10460157;28;20049;-74
2022/10/16 08:54:05;;;;;;;3.25;1.98;;;;;;;17.87;91.56;101199.31;10460591;28;20083;-74
2022/10/16 08:59:11;;;;;;;3.78;1.92;;;;;;;17.32;88.06;101191.53;10459805;28;20079;-77
2022/10/16 09:04:56;;;;;;;4.95;1.92;;;;;;;18.62;82.75;101193.41;10458195;28;20064;-79
2022/10/16 09:10:16;;;;;;;3.58;1.88;;;;;;;17.91;86.22;101207.91;10429605;28;20115;-78
2022/10/16 09:15:30;;;;;;;3.47;2.00;;;;;;;17.23;88.50;101208.81;10459516;28;20049;-75
2022/10/16 09:20:43;;;;;;;3.85;1.95;;;;;;;18.31;84.57;101216.69;10459440;28;20056;-84
2022/10/16 09:25:48;;;;;;;4.70;1.75;;;;;;;17.71;94.67;101220.66;10459170;28;20049;-81
2022/10/16 09:30:50;;;;;;;5.78;2.10;;;;;;;18.47;84.80;101219.13;10456760;28;20135;-72
2022/10/16 09:35:58;;;;;;;4.07;1.83;;;;;;;18.65;82.75;101230.19;10458726;28;20072;-73
2022/10/16 09:41:02;;;;;;;5.07;1.88;;;;;;;19.64;87.43;101234.59;10458689;28;20521;-76
2022/10/16 09:46:07;;;;;;;5.20;1.80;;;;;;;19.72;79.34;101241.94;10458152;28;20656;-75
2022/10/16 09:51:22;;;;;;;5.15;2.03;;;;;;;17.69;85.29;101227.81;10457505;28;20049;-71
2022/10/16 09:56:28;;;;;;;4.18;1.90;;;;;;;18.98;81.12;101238.44;10458314;28;20053;-71
2022/10/16 10:01:38;;;;;;;4.43;1.70;;;;;;;19.67;83.22;101239.63;10455365;28;20114;-84
2022/10/16 10:06:48;;;;;;;8.00;2.10;;;;;;;18.60;83.31;101242.88;10457298;28;20434;-75
2022/10/16 10:11:54;;;;;;;7.40;2.22;;;;;;;18.48;87.57;101241.94;10456779;28;20075;-80
2022/10/16 10:17:15;;;;;;;6.22;2.40;;;;;;;17.68;85.38;101252.50;10456182;28;20083;-63
2022/10/16 10:22:29;;;;;;;4.13;1.98;;;;;;;17.23;84.35;101253.63;10454748;28;20106;-63
2022/10/16 10:27:42;;;;;;;9.35;2.35;;;;;;;17.91;81.98;101255.41;10475623;28;20056;-64
2022/10/16 10:33:01;;;;;;;7.00;2.15;;;;;;;17.42;80.81;101263.00;10475193;28;20053;-66
2022/10/16 10:38:25;;;;;;;6.88;2.40;;;;;;;18.52;76.42;101268.03;10455350;28;20580;-75
2022/10/16 10:43:51;;;;;;;6.80;2.67;;;;;;;20.04;73.19;101266.03;10478102;28;20052;-72
2022/10/16 10:49:40;;;;;;;7.38;2.42;;;;;;;19.11;72.13;101275.47;10496599;28;20057;-70
2022/10/16 10:55:02;;;;;;;9.63;2.30;;;;;;;20.44;69.16;101275.34;10497586;28;20072;-82
2022/10/16 11:00:22;;;;;;;7.18;1.85;;;;;;;22.49;62.98;101272.97;10497446;28;20075;-72
2022/10/16 11:05:44;;;;;;;6.70;2.70;;;;;;;19.82;68.22;101283.50;10494855;28;20454;-74
2022/10/16 11:10:54;;;;;;;6.00;2.05;;;;;;;20.45;69.03;101276.19;10499835;28;20106;-72
2022/10/16 11:16:03;;;;;;;10.57;2.50;;;;;;;19.58;67.41;101285.34;10497806;28;20060;-75
2022/10/16 11:21:11;;;;;;;13.20;2.47;;;;;;;20.30;67.20;101288.81;10496447;28;20049;-74
2022/10/16 11:26:22;;;;;;;7.15;2.30;;;;;;;19.00;67.80;101278.84;10496117;28;20129;-78
2022/10/16 11:31:37;;;;;;;6.78;2.60;;;;;;;17.71;74.53;101291.03;10456200;28;20083;-74
2022/10/16 11:36:46;;;;;;;11.75;2.88;;;;;;;17.56;76.35;101291.13;10457549;28;20053;-78
2022/10/16 11:41:55;;;;;;;9.77;2.40;;;;;;;17.50;74.78;101299.44;10482667;28;20058;-73
2022/10/16 11:47:12;;;;;;;4.10;2.00;;;;;;;19.56;68.41;101296.03;10504150;28;20056;-74
2022/10/16 11:52:24;;;;;;;12.25;2.33;;;;;;;19.49;71.09;101295.66;10503224;28;20046;-78
2022/10/16 11:57:33;;;;;;;6.68;1.83;;;;;;;19.52;68.16;101306.00;10503388;28;20454;-70
2022/10/16 12:02:50;;;;;;;6.93;2.05;;;;;;;18.36;68.69;101296.47;10500820;28;20102;-74
2022/10/16 12:08:05;;;;;;;7.03;2.05;;;;;;;19.27;65.32;101294.53;10503073;28;20117;-80
2022/10/16 12:13:33;;;;;;;8.15;2.20;;;;;;;19.76;64.13;101291.91;10502529;28;20068;-76
2022/10/16 12:18:34;;;;;;;4.93;1.95;;;;;;;18.10;70.37;101307.03;10502307;28;20083;-69
2022/10/16 12:23:47;;;;;;;7.47;1.98;;;;;;;17.87;73.92;101319.94;10502017;28;20451;-65
2022/10/16 12:28:51;;;;;;;6.60;2.00;;;;;;;18.14;72.47;101311.16;10500353;28;20050;-65
2022/10/16 12:34:02;;;;;;;6.43;1.75;;;;;;;19.20;66.12;101309.19;10456320;28;20053;-62
2022/10/16 12:39:05;;;;;;;5.13;2.03;;;;;;;19.27;69.80;101305.13;10460300;28;20114;-64
2022/10/16 12:44:26;;;;;;;6.80;2.20;;;;;;;19.94;65.78;101304.72;10459785;28;20106;-65
2022/10/16 12:49:39;;;;;;;9.60;2.20;;;;;;;19.54;64.81;101301.44;10459315;28;20396;-63
2022/10/16 12:54:42;;;;;;;4.53;1.58;;;;;;;20.15;65.02;101310.22;10459741;28;20291;-62
2022/10/16 12:59:56;;;;;;;6.35;2.00;;;;;;;19.79;63.62;101301.44;10459629;28;20488;-63
2022/10/16 13:05:26;;;;;;;5.72;1.80;;;;;;;19.30;66.00;101296.97;10456961;28;20102;-65
2022/10/16 13:10:40;;;;;;;7.68;2.00;;;;;;;19.60;66.82;101292.19;10469616;28;20133;-64
2022/10/16 13:16:04;;;;;;;4.85;1.88;;;;;;;18.22;69.72;101300.06;10468976;28;20052;-62
2022/10/16 13:21:35;;;;;;;8.23;1.83;;;;;;;19.25;67.06;101299.13;10492156;28;20667;-66
2022/10/16 13:26:50;;;;;;;5.70;1.70;;;;;;;19.35;67.10;101307.25;10460046;28;20090;-65
2022/10/16 13:31:54;;;;;;;6.97;1.63;;;;;;;18.59;71.08;101317.81;10468768;28;20129;-62
2022/10/16 13:36:57;;;;;;;3.72;1.65;;;;;;;18.56;69.09;101318.03;10467563;28;20501;-65
2022/10/16 13:42:06;;;;;;;5.47;1.75;;;;;;;18.62;72.56;101325.53;10460037;28;20053;-63
2022/10/16 13:47:18;;;;;;;7.30;1.90;;;;;;;18.27;72.52;101324.38;10457349;28;20053;-64
2022/10/16 13:52:22;;;;;;;4.93;1.85;;;;;;;17.87;72.37;101327.84;10457061;28;20497;-64
2022/10/16 13:57:26;;;;;;;4.40;1.58;;;;;;;17.89;75.13;101331.22;10456883;28;20090;-63
2022/10/16 14:02:36;;;;;;;4.22;1.58;;;;;;;17.80;75.96;101331.84;10453496;28;20059;-63
2022/10/16 14:07:40;;;;;;;4.97;1.63;;;;;;;17.95;76.41;101346.66;10456340;28;20066;-63
2022/10/16 14:12:42;;;;;;;8.70;1.50;;;;;;;17.73;75.58;101336.69;10456225;28;20045;-63
2022/10/16 14:17:51;;;;;;;6.40;1.80;;;;;;;17.62;76.98;101340.00;10455583;28;20103;-63
2022/10/16 14:23:02;;;;;;;2.70;1.60;;;;;;;17.05;77.93;101323.31;10456603;28;20085;-65
2022/10/16 14:28:15;;;;;;;7.27;1.70;;;;;;;17.17;80.94;101324.38;10455941;28;20057;-63
2022/10/16 14:33:32;;;;;;;4.68;2.08;;;;;;;17.36;77.72;101338.09;10453466;28;20502;-64
2022/10/16 14:38:35;;;;;;;5.57;1.63;;;;;;;17.37;78.24;101315.19;10455554;28;20057;-63
2022/10/16 14:43:42;;;;;;;6.55;1.70;;;;;;;17.33;78.63;101308.41;10455643;28;20095;-64
2022/10/16 14:48:50;;;;;;;5.55;1.80;;;;;;;17.75;77.52;101318.94;10455396;28;20123;-65
2022/10/16 14:53:53;;;;;;;3.33;1.70;;;;;;;17.47;78.53;101328.63;10455107;28;20045;-65
2022/10/16 14:58:56;;;;;;;4.22;1.75;;;;;;;17.60;81.38;101320.78;10454896;28;20075;-64
2022/10/16 15:03:59;;;;;;;3.88;1.30;;;;;;;17.39;79.46;101300.13;10452696;28;20079;-66
2022/10/16 15:09:01;;;;;;;3.70;1.45;;;;;;;17.34;80.81;101310.09;10454815;28;20056;-64
2022/10/16 15:14:04;;;;;;;4.35;1.17;;;;;;;17.22;82.35;101307.34;10462607;28;20079;-62
2022/10/16 15:19:07;;;;;;;5.80;1.52;;;;;;;17.19;84.85;101307.53;10463226;28;20481;-65
2022/10/16 15:24:14;;;;;;;3.45;1.40;;;;;;;16.92;85.79;101308.28;10463258;28;20106;-63
2022/10/16 15:29:16;;;;;;;3.58;1.65;;;;;;;16.78;83.23;101313.53;10463391;28;20063;-64
2022/10/16 15:34:19;;;;;;;5.05;1.77;;;;;;;16.85;83.64;101314.88;10460525;28;20045;-65
2022/10/16 15:39:22;;;;;;;2.38;1.90;;;;;;;16.44;87.45;101308.53;10460631;28;20063;-64
2022/10/16 15:44:26;;;;;;;1.88;1.45;;;;;;;16.25;89.81;101300.91;10498668;28;20651;-64
2022/10/16 15:49:30;;;;;;;4.25;2.35;;;;;;;16.00;91.44;101310.22;10501996;28;20076;-65
2022/10/16 15:54:32;;;;;;;3.88;1.90;;;;;;;16.06;90.54;101326.53;10501944;28;20118;-63
2022/10/16 15:59:35;;;;;;;;;;;;;;;16.20;92.08;101314.31;10503136;28;20118;-66
2022/10/16 16:04:38;;;;;;;5.10;2.20;;;;;;;15.85;93.20;101304.91;10500478;28;19958;-64
2022/10/16 16:09:40;;;;;;;4.22;2.20;;;;;;;15.61;93.28;101309.75;10502219;28;20087;-63
2022/10/16 16:14:42;;;;;;;3.60;2.00;;;;;;;15.40;95.85;101295.09;10502307;28;20048;-66
2022/10/16 16:19:47;;;;;;;5.88;2.10;;;;;;;15.37;99.87;101311.06;10502122;28;20105;-64
2022/10/16 16:24:49;;;;;;;8.38;2.42;;;;;;;15.10;99.98;101293.25;10500601;28;20085;-64
2022/10/16 16:29:53;;;;;;;3.97;2.00;;;;;;;14.87;99.25;101305.84;10501545;28;20424;-65
2022/10/16 16:34:56;;;;;;;12.75;2.80;;;;;;;14.58;100.00;101297.69;10499251;28;20461;-63
2022/10/16 16:39:59;;;;;;;5.93;2.50;;;;;;;14.51;100.00;101294.50;10501133;28;20140;-64
2022/10/16 16:45:00;;;;;;;8.00;3.05;;;;;;;14.44;100.00;101310.69;10501157;28;20060;-63
2022/10/16 16:50:06;;;;;;;7.63;3.10;;;;;;;14.39;100.00;101309.13;10500943;28;20048;-65
2022/10/16 16:55:09;;;;;;;9.32;3.20;;;;;;;14.31;100.00;101332.31;10501185;28;20132;-63
2022/10/16 17:00:13;;;;;;;7.25;3.42;;;;;;;14.22;100.00;101327.50;10500699;28;20078;-63
2022/10/16 17:05:17;;;;;;;5.22;3.10;;;;;;;14.19;100.00;101332.94;10498077;28;20099;-64
2022/10/16 17:10:20;;;;;;;4.03;3.03;;;;;;;14.19;100.00;101327.69;10500716;28;20083;-76
2022/10/16 17:15:21;;;;;;;10.07;5.72;;;;;;;14.18;100.00;101325.97;10500743;28;20193;-77
2022/10/16 17:20:26;;;;;;;9.52;5.85;;;;;;;14.12;100.00;101322.72;10480737;28;20057;-77
2022/10/16 17:25:27;;;;;;;7.13;5.88;;;;;;;14.06;100.00;101317.78;10474905;28;20555;-77
2022/10/16 17:30:31;;;;;;;6.97;5.03;;;;;;;13.97;100.00;101326.13;10498789;28;20082;-76
2022/10/16 17:35:38;;;;;;;7.53;4.45;;;;;;;13.92;100.00;101304.50;10458990;28;20408;-77
2022/10/16 17:40:42;;;;;;;9.77;4.80;;;;;;;13.78;100.00;101321.75;10494927;28;20048;-76
2022/10/16 17:45:44;;;;;;;7.50;4.25;;;;;;;13.62;100.00;101330.34;10498737;28;20140;-76
2022/10/16 17:50:47;;;;;;;7.22;3.80;;;;;;;13.64;100.00;101336.41;10499075;28;20052;-76
2022/10/16 17:55:48;;;;;;;9.38;4.05;;;;;;;13.59;100.00;101329.66;10499041;28;20053;-78
2022/10/16 18:00:51;;;;;;;7.35;3.92;;;;;;;13.60;100.00;101342.72;10497558;28;20126;-74
2022/10/16 18:05:55;;;;;;;9.80;3.90;;;;;;;13.61;100.00;101339.16;10476528;28;20073;-78
2022/10/16 18:10:57;;;;;;;6.50;3.88;;;;;;;13.68;100.00;101373.81;10456797;28;20095;-77
2022/10/16 18:16:02;;;;;;;8.18;4.25;;;;;;;14.09;100.00;101440.16;10481784;28;20068;-77
2022/10/16 18:21:09;;;;;;;10.60;5.18;;;;;;;14.51;100.00;101443.38;10486385;28;20146;-74
2022/10/16 18:26:14;;;;;;;8.05;4.72;;;;;;;14.34;100.00;101428.44;10454330;28;20044;-71
2022/10/16 18:31:17;;;;;;;9.30;4.60;;;;;;;13.77;100.00;101420.59;10453186;28;20393;-71
2022/10/16 18:36:25;;;;;;;7.30;4.40;;;;;;;13.61;100.00;101430.94;10455334;28;20503;-72
2022/10/16 18:41:28;;;;;;;11.43;5.18;;;;;;;13.50;100.00;101441.06;10454874;28;20169;-70
2022/10/16 18:46:31;;;;;;;9.70;4.95;;;;;;;13.36;100.00;101433.78;10454697;28;20647;-72
2022/10/16 18:51:39;;;;;;;10.55;5.90;;;;;;;13.24;100.00;101414.25;10455145;28;20076;-73
2022/10/16 18:56:40;;;;;;;9.60;6.25;;;;;;;13.20;100.00;101386.44;10455108;28;20049;-73
2022/10/16 19:01:42;;;;;;;13.95;9.73;;;;;;;13.13;100.00;101391.97;10452666;28;20481;-72
2022/10/16 19:06:48;;;;;;;14.55;8.25;;;;;;;13.14;100.00;101393.66;10454676;28;20484;-70
2022/10/16 19:11:51;;;;;;;13.50;7.72;;;;;;;13.18;100.00;101401.41;10454584;28;20053;-72
2022/10/16 19:16:52;;;;;;;14.02;7.00;;;;;;;13.05;100.00;101403.69;10454614;28;20048;-71
2022/10/16 19:22:10;;;;;;;10.98;7.93;;;;;;;13.05;100.00;101407.19;10454560;28;20428;-73
2022/10/16 19:27:11;;;;;;;8.30;7.20;;;;;;;13.13;100.00;101405.06;10454226;28;20412;-72
2022/10/16 19:32:13;;;;;;;9.90;6.63;;;;;;;13.06;100.00;101408.00;10452247;28;20083;-72
2022/10/16 19:37:17;;;;;;;14.30;7.00;;;;;;;13.02;100.00;101409.94;10454313;28;20499;-71
2022/10/16 19:42:19;;;;;;;10.43;7.45;;;;;;;13.03;100.00;101413.41;10453999;28;20073;-72
2022/10/16 19:47:22;;;;;;;13.38;6.90;;;;;;;13.00;100.00;101428.34;10454729;28;20102;-73
2022/10/16 19:52:25;;;;;;;9.32;7.10;;;;;;;13.11;100.00;101414.75;10453838;28;20444;-70
2022/10/16 19:57:28;;;;;;;10.45;8.00;;;;;;;12.92;100.00;101413.84;10456635;28;20103;-72
2022/10/16 20:02:30;;;;;;;9.90;7.80;;;;;;;12.93;100.00;101420.81;10459492;28;20064;-73
2022/10/16 20:07:34;;;;;;;;;;;;;;;13.03;100.00;101410.78;10461757;28;20393;-72
2022/10/16 20:12:35;;;;;;;12.98;9.25;;;;;;;12.91;100.00;101394.69;10461109;28;19924;-72
2022/10/16 20:17:38;;;;;;;17.42;11.20;;;;;;;12.88;100.00;101402.69;10461275;28;20433;-72
2022/10/16 20:22:41;;;;;;;23.27;11.60;;;;;;;12.83;100.00;101387.16;10460991;28;20453;-72
2022/10/16 20:27:44;;;;;;;17.55;11.07;;;;;;;12.86;100.00;101401.88;10461084;28;20065;-72
2022/10/16 20:32:46;;;;;;;15.63;11.60;;;;;;;12.72;100.00;101402.47;10458285;28;20072;-74
2022/10/16 20:37:50;;;;;;;19.73;13.57;;;;;;;12.64;100.00;101405.44;10460559;28;20049;-73
2022/10/16 20:42:52;;;;;;;21.15;13.73;;;;;;;12.57;100.00;101404.84;10460625;28;20095;-74
2022/10/16 20:47:53;;;;;;;19.02;12.73;;;;;;;12.49;100.00;101413.00;10460225;28;20053;-71
2022/10/16 20:52:58;;;;;;;15.10;12.13;;;;;;;12.41;100.00;101398.53;10459622;28;20485;-72
2022/10/16 20:58:01;;;;;;;23.92;13.70;;;;;;;12.32;100.00;101390.13;10460205;28;20059;-73
2022/10/16 21:03:03;;;;;;;22.02;13.85;;;;;;;12.19;100.00;101391.56;10457341;28;20095;-72
2022/10/16 21:08:06;;;;;;;;;;;;;;;12.18;100.00;101369.78;10458770;28;20049;-72
2022/10/16 21:13:08;;;;;;;18.27;12.95;;;;;;;12.03;100.00;101368.59;10459600;28;19920;-75
2022/10/16 21:18:09;;;;;;;21.73;13.63;;;;;;;11.87;100.00;101375.38;10458795;28;20101;-72
2022/10/16 21:23:12;;;;;;;22.10;14.27;;;;;;;11.81;100.00;101369.44;10459280;28;20048;-73
2022/10/16 21:28:16;;;;;;;24.05;14.15;;;;;;;11.72;100.00;101372.44;10458748;28;20045;-72
2022/10/16 21:33:17;;;;;;;23.85;14.38;;;;;;;11.66;100.00;101356.97;10456197;28;20140;-72
2022/10/16 21:38:20;;;;;;;20.48;14.23;;;;;;;11.64;100.00;101366.66;10458005;28;20420;-72
2022/10/16 21:43:22;;;;;;;19.58;13.40;;;;;;;11.55;100.00;101366.09;10458310;28;20053;-72
2022/10/16 21:48:24;;;;;;;24.98;13.23;;;;;;;11.52;100.00;101360.97;10457612;28;20153;-74
2022/10/16 21:53:27;;;;;;;28.40;14.70;;;;;;;11.51;100.00;101354.06;10457517;28;20049;-74
2022/10/16 21:58:31;;;;;;;24.77;15.60;;;;;;;11.45;100.00;101351.66;10457513;28;20045;-72
2022/10/16 22:03:33;;;;;;;25.83;14.10;;;;;;;11.35;100.00;101347.72;10455567;28;20041;-74
2022/10/16 22:08:38;;;;;;;24.60;14.68;;;;;;;11.38;100.00;101355.41;10456850;28;20111;-72
2022/10/16 22:13:40;;;;;;;23.65;14.73;;;;;;;11.46;100.00;101364.66;10457284;28;20071;-73
2022/10/16 22:18:42;;;;;;;23.58;14.40;;;;;;;11.72;100.00;101351.50;10456574;28;20099;-74
2022/10/16 22:23:45;;;;;;;23.52;15.38;;;;;;;11.81;100.00;101353.75;10456010;28;20075;-72
2022/10/16 22:28:47;;;;;;;23.50;14.82;;;;;;;11.84;100.00;101358.88;10456523;28;20053;-73
2022/10/16 22:33:53;;;;;;;;;;;;;;;11.89;100.00;101373.53;10454283;28;20048;-72
2022/10/16 22:38:57;;;;;;;21.63;14.73;;;;;;;11.89;100.00;101377.00;10456462;28;19925;-72
2022/10/16 22:43:59;;;;;;;26.42;15.30;;;;;;;11.99;100.00;101367.03;10455500;28;20049;-73
2022/10/16 22:49:02;;;;;;;23.40;15.80;;;;;;;12.02;100.00;101368.66;10455698;28;20049;-72
2022/10/16 22:54:05;;;;;;;23.08;14.10;;;;;;;12.02;100.00;101355.59;10455298;28;20516;-72
2022/10/16 22:59:09;;;;;;;23.45;14.20;;;;;;;12.02;100.00;101343.38;10455643;28;20111;-72
2022/10/16 23:04:11;;;;;;;24.27;14.10;;;;;;;11.90;100.00;101341.25;10453391;28;20049;-72
2022/10/16 23:09:14;;;;;;;28.13;15.35;;;;;;;11.77;100.00;101320.78;10454896;28;20448;-73
2022/10/16 23:14:20;;;;;;;23.92;14.43;;;;;;;11.82;100.00;101324.09;10455222;28;20473;-72